sensor_id;sensor_type;location;lat;lon;timestamp;temperature;humidity
40600;DHT22;26309;50.924;4.754;2023-06-14T00:00:36;17.70;99.30
40600;DHT22;26309;50.924;4.754;2023-06-14T00:03:04;17.70;99.30
40600;DHT22;26309;50.924;4.754;2023-06-14T00:05:31;17.80;99.40
40600;DHT22;26309;50.924;4.754;2023-06-14T00:07:58;17.80;99.40
40600;DHT22;26309;50.924;4.754;2023-06-14T00:10:26;17.70;99.50
40600;DHT22;26309;50.924;4.754;2023-06-14T00:12:56;17.70;99.70
40600;DHT22;26309;50.924;4.754;2023-06-14T00:15:22;17.50;99.90
40600;DHT22;26309;50.924;4.754;2023-06-14T00:17:49;17.30;99.90
40600;DHT22;26309;50.924;4.754;2023-06-14T00:20:15;17.30;99.90
40600;DHT22;26309;50.924;4.754;2023-06-14T00:22:41;17.30;99.90
40600;DHT22;26309;50.924;4.754;2023-06-14T00:25:07;17.30;99.90
40600;DHT22;26309;50.924;4.754;2023-06-14T00:27:33;17.30;99.90
40600;DHT22;26309;50.924;4.754;2023-06-14T00:29:59;17.30;99.90
40600;DHT22;26309;50.924;4.754;2023-06-14T00:32:25;17.30;99.90
40600;DHT22;26309;50.924;4.754;2023-06-14T00:34:51;17.10;99.90
40600;DHT22;26309;50.924;4.754;2023-06-14T00:37:17;17.10;99.90
40600;DHT22;26309;50.924;4.754;2023-06-14T00:39:43;17.00;99.90
40600;DHT22;26309;50.924;4.754;2023-06-14T00:42:09;17.00;99.90
40600;DHT22;26309;50.924;4.754;2023-06-14T00:44:36;17.10;99.90
40600;DHT22;26309;50.924;4.754;2023-06-14T00:47:02;17.10;99.90
40600;DHT22;26309;50.924;4.754;2023-06-14T00:49:29;17.00;99.90
40600;DHT22;26309;50.924;4.754;2023-06-14T00:52:08;17.00;99.90
40600;DHT22;26309;50.924;4.754;2023-06-14T00:54:39;17.00;99.90
40600;DHT22;26309;50.924;4.754;2023-06-14T00:57:05;17.00;99.90
40600;DHT22;26309;50.924;4.754;2023-06-14T00:59:31;16.90;99.90
40600;DHT22;26309;50.924;4.754;2023-06-14T01:01:57;16.80;99.90
40600;DHT22;26309;50.924;4.754;2023-06-14T01:04:23;16.80;99.90
40600;DHT22;26309;50.924;4.754;2023-06-14T01:10:04;16.60;99.90
40600;DHT22;26309;50.924;4.754;2023-06-14T01:12:51;16.50;99.90
40600;DHT22;26309;50.924;4.754;2023-06-14T01:15:20;16.60;99.90
40600;DHT22;26309;50.924;4.754;2023-06-14T01:17:49;16.70;99.90
40600;DHT22;26309;50.924;4.754;2023-06-14T01:20:21;16.70;99.90
40600;DHT22;26309;50.924;4.754;2023-06-14T01:22:53;16.70;99.90
40600;DHT22;26309;50.924;4.754;2023-06-14T01:25:23;16.50;99.90
40600;DHT22;26309;50.924;4.754;2023-06-14T01:30:24;16.30;99.90
40600;DHT22;26309;50.924;4.754;2023-06-14T01:32:53;16.30;99.90
40600;DHT22;26309;50.924;4.754;2023-06-14T01:35:20;16.30;99.90
40600;DHT22;26309;50.924;4.754;2023-06-14T01:37:49;16.20;99.90
40600;DHT22;26309;50.924;4.754;2023-06-14T01:40:17;15.90;99.90
40600;DHT22;26309;50.924;4.754;2023-06-14T01:42:46;15.90;99.90
40600;DHT22;26309;50.924;4.754;2023-06-14T01:45:14;15.80;99.90
40600;DHT22;26309;50.924;4.754;2023-06-14T01:47:41;15.70;99.90
40600;DHT22;26309;50.924;4.754;2023-06-14T01:50:07;15.80;99.90
40600;DHT22;26309;50.924;4.754;2023-06-14T01:52:33;15.90;99.90
40600;DHT22;26309;50.924;4.754;2023-06-14T01:54:59;15.90;99.90
40600;DHT22;26309;50.924;4.754;2023-06-14T01:57:36;16.00;99.90
40600;DHT22;26309;50.924;4.754;2023-06-14T02:00:03;16.10;99.90
40600;DHT22;26309;50.924;4.754;2023-06-14T02:02:29;16.10;99.90
40600;DHT22;26309;50.924;4.754;2023-06-14T02:04:55;16.00;99.90
40600;DHT22;26309;50.924;4.754;2023-06-14T02:07:23;15.90;99.90
40600;DHT22;26309;50.924;4.754;2023-06-14T02:09:49;15.80;99.90
40600;DHT22;26309;50.924;4.754;2023-06-14T02:12:15;15.80;99.90
40600;DHT22;26309;50.924;4.754;2023-06-14T02:14:41;15.80;99.90
40600;DHT22;26309;50.924;4.754;2023-06-14T02:17:07;15.70;99.90
40600;DHT22;26309;50.924;4.754;2023-06-14T02:19:33;15.60;99.90
40600;DHT22;26309;50.924;4.754;2023-06-14T02:21:59;15.70;99.90
40600;DHT22;26309;50.924;4.754;2023-06-14T02:24:25;15.70;99.90
40600;DHT22;26309;50.924;4.754;2023-06-14T02:26:51;15.70;99.90
40600;DHT22;26309;50.924;4.754;2023-06-14T02:29:17;15.70;99.90
40600;DHT22;26309;50.924;4.754;2023-06-14T02:31:43;15.60;99.90
40600;DHT22;26309;50.924;4.754;2023-06-14T02:34:09;15.70;99.90
40600;DHT22;26309;50.924;4.754;2023-06-14T02:36:35;15.60;99.90
40600;DHT22;26309;50.924;4.754;2023-06-14T02:39:11;15.50;99.90
40600;DHT22;26309;50.924;4.754;2023-06-14T02:41:37;15.50;99.90
40600;DHT22;26309;50.924;4.754;2023-06-14T02:44:03;15.50;99.90
40600;DHT22;26309;50.924;4.754;2023-06-14T02:46:30;15.50;99.90
40600;DHT22;26309;50.924;4.754;2023-06-14T02:48:56;15.50;99.90
40600;DHT22;26309;50.924;4.754;2023-06-14T02:51:22;15.40;99.90
40600;DHT22;26309;50.924;4.754;2023-06-14T02:53:48;15.40;99.90
40600;DHT22;26309;50.924;4.754;2023-06-14T02:56:14;15.40;99.90
40600;DHT22;26309;50.924;4.754;2023-06-14T02:58:43;15.30;99.90
40600;DHT22;26309;50.924;4.754;2023-06-14T03:01:09;15.20;99.90
40600;DHT22;26309;50.924;4.754;2023-06-14T03:03:38;15.30;99.90
40600;DHT22;26309;50.924;4.754;2023-06-14T03:06:04;15.30;99.90
40600;DHT22;26309;50.924;4.754;2023-06-14T03:08:31;15.30;99.90
40600;DHT22;26309;50.924;4.754;2023-06-14T03:10:58;15.30;99.90
40600;DHT22;26309;50.924;4.754;2023-06-14T03:13:26;15.20;99.90
40600;DHT22;26309;50.924;4.754;2023-06-14T03:15:52;15.20;99.90
40600;DHT22;26309;50.924;4.754;2023-06-14T03:18:18;15.20;99.90
40600;DHT22;26309;50.924;4.754;2023-06-14T03:20:44;15.20;99.90
40600;DHT22;26309;50.924;4.754;2023-06-14T03:23:13;15.10;99.90
40600;DHT22;26309;50.924;4.754;2023-06-14T03:25:39;15.00;99.90
40600;DHT22;26309;50.924;4.754;2023-06-14T03:28:07;15.00;99.90
40600;DHT22;26309;50.924;4.754;2023-06-14T03:30:33;15.00;99.90
40600;DHT22;26309;50.924;4.754;2023-06-14T03:32:59;15.00;99.90
40600;DHT22;26309;50.924;4.754;2023-06-14T03:35:28;14.90;99.90
40600;DHT22;26309;50.924;4.754;2023-06-14T03:37:54;14.90;99.90
40600;DHT22;26309;50.924;4.754;2023-06-14T03:40:21;15.00;99.90
40600;DHT22;26309;50.924;4.754;2023-06-14T03:42:47;14.90;99.90
40600;DHT22;26309;50.924;4.754;2023-06-14T03:45:13;14.90;99.90
40600;DHT22;26309;50.924;4.754;2023-06-14T03:47:39;14.90;99.90
40600;DHT22;26309;50.924;4.754;2023-06-14T03:50:05;14.80;99.90
40600;DHT22;26309;50.924;4.754;2023-06-14T03:52:31;14.80;99.90
40600;DHT22;26309;50.924;4.754;2023-06-14T03:54:58;14.90;99.90
40600;DHT22;26309;50.924;4.754;2023-06-14T03:57:26;15.10;99.90
40600;DHT22;26309;50.924;4.754;2023-06-14T03:59:52;15.10;99.90
40600;DHT22;26309;50.924;4.754;2023-06-14T04:02:17;15.10;99.90
40600;DHT22;26309;50.924;4.754;2023-06-14T04:04:44;15.00;99.90
40600;DHT22;26309;50.924;4.754;2023-06-14T04:07:14;15.00;99.90
40600;DHT22;26309;50.924;4.754;2023-06-14T04:09:42;15.10;99.90
40600;DHT22;26309;50.924;4.754;2023-06-14T04:12:08;14.90;99.90
40600;DHT22;26309;50.924;4.754;2023-06-14T04:14:35;14.90;99.90
40600;DHT22;26309;50.924;4.754;2023-06-14T04:17:01;15.10;99.90
40600;DHT22;26309;50.924;4.754;2023-06-14T04:19:26;15.10;99.90
40600;DHT22;26309;50.924;4.754;2023-06-14T04:21:53;15.30;99.90
40600;DHT22;26309;50.924;4.754;2023-06-14T04:24:19;15.60;99.90
40600;DHT22;26309;50.924;4.754;2023-06-14T04:26:45;15.80;99.90
40600;DHT22;26309;50.924;4.754;2023-06-14T04:29:16;15.90;99.90
40600;DHT22;26309;50.924;4.754;2023-06-14T04:31:43;16.00;99.90
40600;DHT22;26309;50.924;4.754;2023-06-14T04:34:10;16.30;99.90
40600;DHT22;26309;50.924;4.754;2023-06-14T04:36:42;16.40;99.90
40600;DHT22;26309;50.924;4.754;2023-06-14T04:39:16;16.60;99.90
40600;DHT22;26309;50.924;4.754;2023-06-14T04:41:43;16.70;99.90
40600;DHT22;26309;50.924;4.754;2023-06-14T04:44:09;16.60;99.90
40600;DHT22;26309;50.924;4.754;2023-06-14T04:46:36;16.60;99.90
40600;DHT22;26309;50.924;4.754;2023-06-14T04:49:13;16.60;99.90
40600;DHT22;26309;50.924;4.754;2023-06-14T04:51:41;16.90;99.90
40600;DHT22;26309;50.924;4.754;2023-06-14T04:54:08;17.80;99.90
40600;DHT22;26309;50.924;4.754;2023-06-14T04:56:43;18.70;99.90
40600;DHT22;26309;50.924;4.754;2023-06-14T04:59:10;19.60;99.90
40600;DHT22;26309;50.924;4.754;2023-06-14T05:01:40;20.40;98.50
40600;DHT22;26309;50.924;4.754;2023-06-14T05:04:06;21.00;96.80
40600;DHT22;26309;50.924;4.754;2023-06-14T05:06:32;21.40;95.10
40600;DHT22;26309;50.924;4.754;2023-06-14T05:08:58;21.70;94.50
40600;DHT22;26309;50.924;4.754;2023-06-14T05:11:24;22.20;93.30
40600;DHT22;26309;50.924;4.754;2023-06-14T05:13:52;22.40;92.20
40600;DHT22;26309;50.924;4.754;2023-06-14T05:16:18;22.60;91.80
40600;DHT22;26309;50.924;4.754;2023-06-14T05:18:45;22.70;91.00
40600;DHT22;26309;50.924;4.754;2023-06-14T05:21:13;22.80;90.60
40600;DHT22;26309;50.924;4.754;2023-06-14T05:23:41;23.00;90.40
40600;DHT22;26309;50.924;4.754;2023-06-14T05:26:07;22.90;89.70
40600;DHT22;26309;50.924;4.754;2023-06-14T05:28:33;23.20;89.20
40600;DHT22;26309;50.924;4.754;2023-06-14T05:30:59;23.30;87.60
40600;DHT22;26309;50.924;4.754;2023-06-14T05:33:25;23.20;87.20
40600;DHT22;26309;50.924;4.754;2023-06-14T05:35:51;23.10;86.00
40600;DHT22;26309;50.924;4.754;2023-06-14T05:38:17;23.30;88.00
40600;DHT22;26309;50.924;4.754;2023-06-14T05:40:43;23.50;84.30
40600;DHT22;26309;50.924;4.754;2023-06-14T05:43:11;23.70;83.90
40600;DHT22;26309;50.924;4.754;2023-06-14T05:45:41;24.00;81.00
40600;DHT22;26309;50.924;4.754;2023-06-14T05:48:16;24.30;79.50
40600;DHT22;26309;50.924;4.754;2023-06-14T05:50:43;24.70;80.50
40600;DHT22;26309;50.924;4.754;2023-06-14T05:53:09;24.90;78.20
40600;DHT22;26309;50.924;4.754;2023-06-14T05:55:35;25.20;75.90
40600;DHT22;26309;50.924;4.754;2023-06-14T05:58:01;25.30;74.50
40600;DHT22;26309;50.924;4.754;2023-06-14T06:00:28;25.50;74.00
40600;DHT22;26309;50.924;4.754;2023-06-14T06:02:54;25.40;74.10
40600;DHT22;26309;50.924;4.754;2023-06-14T06:05:23;25.20;73.80
40600;DHT22;26309;50.924;4.754;2023-06-14T06:07:49;25.20;72.20
40600;DHT22;26309;50.924;4.754;2023-06-14T06:10:16;24.90;73.10
40600;DHT22;26309;50.924;4.754;2023-06-14T06:12:42;24.80;72.40
40600;DHT22;26309;50.924;4.754;2023-06-14T06:15:08;25.00;73.50
40600;DHT22;26309;50.924;4.754;2023-06-14T06:17:38;25.10;75.10
40600;DHT22;26309;50.924;4.754;2023-06-14T06:20:04;25.30;74.70
40600;DHT22;26309;50.924;4.754;2023-06-14T06:22:32;25.30;72.80
40600;DHT22;26309;50.924;4.754;2023-06-14T06:24:58;25.10;72.50
40600;DHT22;26309;50.924;4.754;2023-06-14T06:27:24;24.80;72.40
40600;DHT22;26309;50.924;4.754;2023-06-14T06:29:50;24.90;71.90
40600;DHT22;26309;50.924;4.754;2023-06-14T06:56:50;23.80;76.60
40600;DHT22;26309;50.924;4.754;2023-06-14T06:59:18;24.00;77.40
40600;DHT22;26309;50.924;4.754;2023-06-14T07:01:44;24.20;76.40
40600;DHT22;26309;50.924;4.754;2023-06-14T07:04:11;24.20;75.70
40600;DHT22;26309;50.924;4.754;2023-06-14T07:06:37;24.20;76.30
40600;DHT22;26309;50.924;4.754;2023-06-14T07:09:05;24.30;78.20
40600;DHT22;26309;50.924;4.754;2023-06-14T07:11:39;24.20;76.40
40600;DHT22;26309;50.924;4.754;2023-06-14T07:14:06;24.30;76.20
40600;DHT22;26309;50.924;4.754;2023-06-14T07:16:34;24.20;75.20
40600;DHT22;26309;50.924;4.754;2023-06-14T07:19:07;24.30;75.60
40600;DHT22;26309;50.924;4.754;2023-06-14T07:21:34;24.10;75.50
40600;DHT22;26309;50.924;4.754;2023-06-14T07:24:08;24.10;75.80
40600;DHT22;26309;50.924;4.754;2023-06-14T07:26:38;24.10;75.90
40600;DHT22;26309;50.924;4.754;2023-06-14T07:29:04;24.20;73.90
40600;DHT22;26309;50.924;4.754;2023-06-14T07:32:02;24.30;76.70
40600;DHT22;26309;50.924;4.754;2023-06-14T07:34:47;24.00;74.80
40600;DHT22;26309;50.924;4.754;2023-06-14T07:37:16;24.30;74.70
40600;DHT22;26309;50.924;4.754;2023-06-14T07:39:43;24.40;76.30
40600;DHT22;26309;50.924;4.754;2023-06-14T07:42:10;24.50;74.20
40600;DHT22;26309;50.924;4.754;2023-06-14T07:44:36;24.70;72.20
40600;DHT22;26309;50.924;4.754;2023-06-14T07:47:02;24.70;72.70
40600;DHT22;26309;50.924;4.754;2023-06-14T07:49:50;24.70;73.00
40600;DHT22;26309;50.924;4.754;2023-06-14T07:52:34;24.80;72.20
40600;DHT22;26309;50.924;4.754;2023-06-14T07:55:00;25.00;74.80
40600;DHT22;26309;50.924;4.754;2023-06-14T07:57:26;25.20;71.40
40600;DHT22;26309;50.924;4.754;2023-06-14T07:59:52;25.20;70.70
40600;DHT22;26309;50.924;4.754;2023-06-14T08:02:20;25.30;70.30
40600;DHT22;26309;50.924;4.754;2023-06-14T08:04:47;25.00;68.60
40600;DHT22;26309;50.924;4.754;2023-06-14T08:07:14;24.50;72.70
40600;DHT22;26309;50.924;4.754;2023-06-14T08:09:41;24.70;73.50
40600;DHT22;26309;50.924;4.754;2023-06-14T08:12:07;24.50;72.40
40600;DHT22;26309;50.924;4.754;2023-06-14T08:14:35;24.60;72.90
40600;DHT22;26309;50.924;4.754;2023-06-14T08:17:01;24.60;72.70
40600;DHT22;26309;50.924;4.754;2023-06-14T08:19:28;24.60;73.00
40600;DHT22;26309;50.924;4.754;2023-06-14T08:21:54;24.90;71.80
40600;DHT22;26309;50.924;4.754;2023-06-14T08:24:24;25.10;72.30
40600;DHT22;26309;50.924;4.754;2023-06-14T08:26:50;25.40;71.60
40600;DHT22;26309;50.924;4.754;2023-06-14T08:29:16;25.70;73.60
40600;DHT22;26309;50.924;4.754;2023-06-14T08:31:43;25.60;70.80
40600;DHT22;26309;50.924;4.754;2023-06-14T08:34:09;25.40;71.00
40600;DHT22;26309;50.924;4.754;2023-06-14T08:36:35;25.60;69.10
40600;DHT22;26309;50.924;4.754;2023-06-14T08:39:02;25.50;70.10
40600;DHT22;26309;50.924;4.754;2023-06-14T08:41:28;25.50;71.80
40600;DHT22;26309;50.924;4.754;2023-06-14T08:43:56;25.70;71.10
40600;DHT22;26309;50.924;4.754;2023-06-14T08:46:25;25.50;69.20
40600;DHT22;26309;50.924;4.754;2023-06-14T08:48:55;25.50;67.00
40600;DHT22;26309;50.924;4.754;2023-06-14T08:51:25;25.60;69.40
40600;DHT22;26309;50.924;4.754;2023-06-14T08:53:56;25.50;65.60
40600;DHT22;26309;50.924;4.754;2023-06-14T08:56:28;25.40;67.50
40600;DHT22;26309;50.924;4.754;2023-06-14T08:58:55;25.60;67.70
40600;DHT22;26309;50.924;4.754;2023-06-14T09:01:23;25.60;66.80
40600;DHT22;26309;50.924;4.754;2023-06-14T09:03:50;25.70;69.60
40600;DHT22;26309;50.924;4.754;2023-06-14T09:06:17;25.80;64.50
40600;DHT22;26309;50.924;4.754;2023-06-14T09:08:45;26.00;65.90
40600;DHT22;26309;50.924;4.754;2023-06-14T09:11:15;26.30;66.40
40600;DHT22;26309;50.924;4.754;2023-06-14T09:13:42;26.30;63.00
40600;DHT22;26309;50.924;4.754;2023-06-14T09:16:08;26.00;65.80
40600;DHT22;26309;50.924;4.754;2023-06-14T09:18:43;26.00;64.10
40600;DHT22;26309;50.924;4.754;2023-06-14T09:21:11;26.30;64.10
40600;DHT22;26309;50.924;4.754;2023-06-14T09:23:38;26.60;62.80
40600;DHT22;26309;50.924;4.754;2023-06-14T09:26:21;26.70;60.20
40600;DHT22;26309;50.924;4.754;2023-06-14T09:28:52;26.40;58.40
40600;DHT22;26309;50.924;4.754;2023-06-14T09:31:27;26.40;59.80
40600;DHT22;26309;50.924;4.754;2023-06-14T09:34:02;26.20;60.40
40600;DHT22;26309;50.924;4.754;2023-06-14T09:36:28;26.10;58.70
40600;DHT22;26309;50.924;4.754;2023-06-14T09:38:59;26.20;57.70
40600;DHT22;26309;50.924;4.754;2023-06-14T09:41:41;26.40;57.40
40600;DHT22;26309;50.924;4.754;2023-06-14T09:44:09;26.50;58.40
40600;DHT22;26309;50.924;4.754;2023-06-14T09:46:39;26.50;58.10
40600;DHT22;26309;50.924;4.754;2023-06-14T09:49:06;26.20;55.80
40600;DHT22;26309;50.924;4.754;2023-06-14T09:51:33;26.20;56.40
40600;DHT22;26309;50.924;4.754;2023-06-14T09:54:04;26.30;56.20
40600;DHT22;26309;50.924;4.754;2023-06-14T09:56:40;26.40;56.60
40600;DHT22;26309;50.924;4.754;2023-06-14T09:59:09;26.40;54.90
40600;DHT22;26309;50.924;4.754;2023-06-14T10:01:41;26.20;57.30
40600;DHT22;26309;50.924;4.754;2023-06-14T10:04:09;26.40;56.00
40600;DHT22;26309;50.924;4.754;2023-06-14T10:06:45;26.40;56.30
40600;DHT22;26309;50.924;4.754;2023-06-14T10:09:12;26.20;54.30
40600;DHT22;26309;50.924;4.754;2023-06-14T10:11:41;26.30;55.20
40600;DHT22;26309;50.924;4.754;2023-06-14T10:14:11;26.60;55.40
40600;DHT22;26309;50.924;4.754;2023-06-14T10:19:34;26.70;54.20
40600;DHT22;26309;50.924;4.754;2023-06-14T10:22:08;26.70;53.40
40600;DHT22;26309;50.924;4.754;2023-06-14T10:24:42;26.40;53.20
40600;DHT22;26309;50.924;4.754;2023-06-14T10:27:09;25.90;54.60
40600;DHT22;26309;50.924;4.754;2023-06-14T10:32:28;25.70;55.10
40600;DHT22;26309;50.924;4.754;2023-06-14T10:35:05;26.00;56.70
40600;DHT22;26309;50.924;4.754;2023-06-14T10:37:34;26.20;54.80
40600;DHT22;26309;50.924;4.754;2023-06-14T10:40:01;26.40;55.60
40600;DHT22;26309;50.924;4.754;2023-06-14T10:42:34;26.30;55.30
40600;DHT22;26309;50.924;4.754;2023-06-14T10:45:01;26.50;53.90
40600;DHT22;26309;50.924;4.754;2023-06-14T10:50:08;26.50;53.80
40600;DHT22;26309;50.924;4.754;2023-06-14T10:52:42;26.50;52.60
40600;DHT22;26309;50.924;4.754;2023-06-14T10:55:17;26.40;51.90
40600;DHT22;26309;50.924;4.754;2023-06-14T10:57:49;26.30;50.60
40600;DHT22;26309;50.924;4.754;2023-06-14T11:00:23;26.10;50.00
40600;DHT22;26309;50.924;4.754;2023-06-14T11:05:55;26.80;52.30
40600;DHT22;26309;50.924;4.754;2023-06-14T11:10:59;26.40;50.30
40600;DHT22;26309;50.924;4.754;2023-06-14T11:13:26;26.20;51.00
40600;DHT22;26309;50.924;4.754;2023-06-14T11:15:52;26.40;51.60
40600;DHT22;26309;50.924;4.754;2023-06-14T11:18:23;26.20;52.50
40600;DHT22;26309;50.924;4.754;2023-06-14T11:20:57;26.30;54.70
40600;DHT22;26309;50.924;4.754;2023-06-14T11:23:23;26.30;53.70
40600;DHT22;26309;50.924;4.754;2023-06-14T11:25:52;26.30;53.30
40600;DHT22;26309;50.924;4.754;2023-06-14T11:28:19;26.50;53.40
40600;DHT22;26309;50.924;4.754;2023-06-14T11:30:47;26.80;54.40
40600;DHT22;26309;50.924;4.754;2023-06-14T11:33:17;26.70;50.90
40600;DHT22;26309;50.924;4.754;2023-06-14T11:35:46;26.60;54.20
40600;DHT22;26309;50.924;4.754;2023-06-14T11:38:13;26.70;51.00
40600;DHT22;26309;50.924;4.754;2023-06-14T11:40:39;26.80;50.70
40600;DHT22;26309;50.924;4.754;2023-06-14T11:43:05;27.00;51.10
40600;DHT22;26309;50.924;4.754;2023-06-14T11:45:31;27.10;52.00
40600;DHT22;26309;50.924;4.754;2023-06-14T11:47:59;27.20;51.20
40600;DHT22;26309;50.924;4.754;2023-06-14T11:50:29;27.30;50.30
40600;DHT22;26309;50.924;4.754;2023-06-14T11:53:00;27.00;50.20
40600;DHT22;26309;50.924;4.754;2023-06-14T11:55:39;27.00;51.50
40600;DHT22;26309;50.924;4.754;2023-06-14T11:58:06;26.80;51.20
40600;DHT22;26309;50.924;4.754;2023-06-14T12:00:32;27.00;51.20
40600;DHT22;26309;50.924;4.754;2023-06-14T12:03:01;27.20;50.00
40600;DHT22;26309;50.924;4.754;2023-06-14T12:05:26;27.10;50.40
40600;DHT22;26309;50.924;4.754;2023-06-14T12:08:00;27.20;49.90
40600;DHT22;26309;50.924;4.754;2023-06-14T12:10:26;26.80;49.30
40600;DHT22;26309;50.924;4.754;2023-06-14T12:12:59;26.80;49.70
40600;DHT22;26309;50.924;4.754;2023-06-14T12:15:28;26.80;48.10
40600;DHT22;26309;50.924;4.754;2023-06-14T12:18:01;26.80;50.10
40600;DHT22;26309;50.924;4.754;2023-06-14T12:20:31;26.90;50.50
40600;DHT22;26309;50.924;4.754;2023-06-14T12:22:59;27.00;49.60
40600;DHT22;26309;50.924;4.754;2023-06-14T12:25:32;27.00;48.10
40600;DHT22;26309;50.924;4.754;2023-06-14T12:28:03;27.00;48.10
40600;DHT22;26309;50.924;4.754;2023-06-14T12:30:29;27.00;46.90
40600;DHT22;26309;50.924;4.754;2023-06-14T12:32:55;27.20;48.80
40600;DHT22;26309;50.924;4.754;2023-06-14T12:35:21;27.20;47.40
40600;DHT22;26309;50.924;4.754;2023-06-14T12:37:47;27.20;51.20
40600;DHT22;26309;50.924;4.754;2023-06-14T12:40:14;27.20;46.10
40600;DHT22;26309;50.924;4.754;2023-06-14T12:42:44;27.50;48.50
40600;DHT22;26309;50.924;4.754;2023-06-14T12:45:10;27.70;47.10
40600;DHT22;26309;50.924;4.754;2023-06-14T12:47:36;27.90;47.70
40600;DHT22;26309;50.924;4.754;2023-06-14T12:50:02;27.40;47.60
40600;DHT22;26309;50.924;4.754;2023-06-14T12:52:28;27.40;48.50
40600;DHT22;26309;50.924;4.754;2023-06-14T12:54:55;27.50;49.50
40600;DHT22;26309;50.924;4.754;2023-06-14T12:57:22;27.80;46.40
40600;DHT22;26309;50.924;4.754;2023-06-14T12:59:48;27.50;46.20
40600;DHT22;26309;50.924;4.754;2023-06-14T13:02:16;27.70;47.60
40600;DHT22;26309;50.924;4.754;2023-06-14T13:04:43;27.50;45.10
40600;DHT22;26309;50.924;4.754;2023-06-14T13:07:09;27.40;44.80
40600;DHT22;26309;50.924;4.754;2023-06-14T13:09:37;27.40;45.90
40600;DHT22;26309;50.924;4.754;2023-06-14T13:12:03;27.20;45.00
40600;DHT22;26309;50.924;4.754;2023-06-14T13:14:30;26.90;44.30
40600;DHT22;26309;50.924;4.754;2023-06-14T13:16:57;27.10;46.10
40600;DHT22;26309;50.924;4.754;2023-06-14T13:19:23;26.90;45.90
40600;DHT22;26309;50.924;4.754;2023-06-14T13:21:49;27.00;45.20
40600;DHT22;26309;50.924;4.754;2023-06-14T13:24:15;27.10;45.30
40600;DHT22;26309;50.924;4.754;2023-06-14T13:26:41;27.30;45.00
40600;DHT22;26309;50.924;4.754;2023-06-14T13:29:07;27.40;45.50
40600;DHT22;26309;50.924;4.754;2023-06-14T13:31:33;27.30;43.90
40600;DHT22;26309;50.924;4.754;2023-06-14T13:33:59;27.30;44.00
40600;DHT22;26309;50.924;4.754;2023-06-14T13:36:25;27.10;45.10
40600;DHT22;26309;50.924;4.754;2023-06-14T13:38:51;26.80;42.50
40600;DHT22;26309;50.924;4.754;2023-06-14T13:41:18;26.80;45.70
40600;DHT22;26309;50.924;4.754;2023-06-14T13:43:44;26.90;42.90
40600;DHT22;26309;50.924;4.754;2023-06-14T13:46:10;27.10;45.60
40600;DHT22;26309;50.924;4.754;2023-06-14T13:48:36;27.30;44.20
40600;DHT22;26309;50.924;4.754;2023-06-14T13:51:02;27.30;41.70
40600;DHT22;26309;50.924;4.754;2023-06-14T13:53:30;27.20;43.80
40600;DHT22;26309;50.924;4.754;2023-06-14T13:55:56;27.60;43.50
40600;DHT22;26309;50.924;4.754;2023-06-14T13:58:22;27.60;44.20
40600;DHT22;26309;50.924;4.754;2023-06-14T14:00:49;27.40;44.60
40600;DHT22;26309;50.924;4.754;2023-06-14T14:03:16;27.50;43.80
40600;DHT22;26309;50.924;4.754;2023-06-14T14:05:42;27.90;43.80
40600;DHT22;26309;50.924;4.754;2023-06-14T14:08:08;27.80;44.90
40600;DHT22;26309;50.924;4.754;2023-06-14T14:10:34;28.50;43.30
40600;DHT22;26309;50.924;4.754;2023-06-14T14:12:59;28.50;41.40
40600;DHT22;26309;50.924;4.754;2023-06-14T14:15:27;28.50;42.10
40600;DHT22;26309;50.924;4.754;2023-06-14T14:17:54;29.00;42.90
40600;DHT22;26309;50.924;4.754;2023-06-14T14:20:20;29.40;41.40
40600;DHT22;26309;50.924;4.754;2023-06-14T14:22:46;29.60;40.40
40600;DHT22;26309;50.924;4.754;2023-06-14T14:25:12;29.30;40.70
40600;DHT22;26309;50.924;4.754;2023-06-14T14:27:37;29.50;41.20
40600;DHT22;26309;50.924;4.754;2023-06-14T14:30:04;29.90;40.10
40600;DHT22;26309;50.924;4.754;2023-06-14T14:32:30;29.80;40.60
40600;DHT22;26309;50.924;4.754;2023-06-14T14:34:56;29.90;42.20
40600;DHT22;26309;50.924;4.754;2023-06-14T14:37:25;30.40;40.70
40600;DHT22;26309;50.924;4.754;2023-06-14T14:39:51;30.50;40.90
40600;DHT22;26309;50.924;4.754;2023-06-14T14:42:17;30.60;38.90
40600;DHT22;26309;50.924;4.754;2023-06-14T14:44:44;30.40;39.50
40600;DHT22;26309;50.924;4.754;2023-06-14T14:47:10;30.30;37.60
40600;DHT22;26309;50.924;4.754;2023-06-14T14:49:36;29.40;38.80
40600;DHT22;26309;50.924;4.754;2023-06-14T14:52:02;29.60;40.30
40600;DHT22;26309;50.924;4.754;2023-06-14T14:54:28;29.30;40.70
40600;DHT22;26309;50.924;4.754;2023-06-14T14:56:55;29.40;40.80
40600;DHT22;26309;50.924;4.754;2023-06-14T14:59:21;29.70;41.50
40600;DHT22;26309;50.924;4.754;2023-06-14T15:01:47;30.00;40.30
40600;DHT22;26309;50.924;4.754;2023-06-14T15:04:13;29.70;41.20
40600;DHT22;26309;50.924;4.754;2023-06-14T15:06:39;29.50;39.20
40600;DHT22;26309;50.924;4.754;2023-06-14T15:09:06;29.40;40.20
40600;DHT22;26309;50.924;4.754;2023-06-14T15:11:36;29.40;39.00
40600;DHT22;26309;50.924;4.754;2023-06-14T15:14:02;29.70;39.30
40600;DHT22;26309;50.924;4.754;2023-06-14T15:16:28;29.60;41.10
40600;DHT22;26309;50.924;4.754;2023-06-14T15:18:53;29.10;40.50
40600;DHT22;26309;50.924;4.754;2023-06-14T15:21:19;28.90;42.60
40600;DHT22;26309;50.924;4.754;2023-06-14T15:23:46;29.10;40.60
40600;DHT22;26309;50.924;4.754;2023-06-14T15:26:11;29.20;42.70
40600;DHT22;26309;50.924;4.754;2023-06-14T15:28:37;29.40;41.20
40600;DHT22;26309;50.924;4.754;2023-06-14T15:31:04;30.00;40.80
40600;DHT22;26309;50.924;4.754;2023-06-14T15:33:31;30.50;38.80
40600;DHT22;26309;50.924;4.754;2023-06-14T15:35:57;30.50;38.40
40600;DHT22;26309;50.924;4.754;2023-06-14T15:38:23;30.70;38.20
40600;DHT22;26309;50.924;4.754;2023-06-14T15:40:49;30.00;39.10
40600;DHT22;26309;50.924;4.754;2023-06-14T15:43:15;30.10;38.30
40600;DHT22;26309;50.924;4.754;2023-06-14T15:45:41;29.90;39.90
40600;DHT22;26309;50.924;4.754;2023-06-14T15:48:09;30.40;39.20
40600;DHT22;26309;50.924;4.754;2023-06-14T15:50:35;29.40;38.70
40600;DHT22;26309;50.924;4.754;2023-06-14T15:53:02;29.10;40.50
40600;DHT22;26309;50.924;4.754;2023-06-14T15:55:28;29.20;40.00
40600;DHT22;26309;50.924;4.754;2023-06-14T15:58:00;29.40;38.80
40600;DHT22;26309;50.924;4.754;2023-06-14T16:00:27;29.20;39.10
40600;DHT22;26309;50.924;4.754;2023-06-14T16:02:53;29.60;39.90
40600;DHT22;26309;50.924;4.754;2023-06-14T16:05:19;30.30;37.40
40600;DHT22;26309;50.924;4.754;2023-06-14T16:07:44;30.90;37.70
40600;DHT22;26309;50.924;4.754;2023-06-14T16:10:11;30.90;37.30
40600;DHT22;26309;50.924;4.754;2023-06-14T16:12:37;30.10;37.40
40600;DHT22;26309;50.924;4.754;2023-06-14T16:15:03;29.80;39.20
40600;DHT22;26309;50.924;4.754;2023-06-14T16:17:29;30.10;38.20